Time;durP1;ratioP1;P1;durP2;ratioP2;P2;SDS_P1;SDS_P2;PMS_P1;PMS_P2;Temp;Humidity;BMP_temperature;BMP_pressure;BME280_temperature;BME280_humidity;BME280_pressure;Samples;Min_cycle;Max_cycle;Signal;HPM_P1;HPM_P2
2023/12/11 00:00:59;;;;;;;0.17;0.17;;;;;;;8.80;100.00;92139.66;2095831;28;20187;-76
2023/12/11 00:02:00;;;;;;;0.40;0.30;;;;;;;8.61;100.00;92133.38;2085218;28;20096;-79
2023/12/11 00:03:01;;;;;;;0.40;0.20;;;;;;;8.65;100.00;92126.03;2087691;28;20466;-78
2023/12/11 00:04:03;;;;;;;0.40;0.15;;;;;;;8.60;100.00;92128.47;2089481;28;20033;-77
2023/12/11 00:05:04;;;;;;;0.20;0.20;;;;;;;8.47;100.00;92125.81;2085305;28;20016;-77
2023/12/11 00:06:05;;;;;;;0.20;0.20;;;;;;;8.56;100.00;92129.34;2095790;28;20109;-78
2023/12/11 00:07:06;;;;;;;0.20;0.20;;;;;;;8.61;100.00;92120.06;2096101;28;20028;-77
2023/12/11 00:08:07;;;;;;;0.30;0.28;;;;;;;8.60;100.00;92128.47;2085314;28;20385;-78
2023/12/11 00:09:09;;;;;;;0.98;0.20;;;;;;;8.61;100.00;92130.72;2089656;28;20025;-77
2023/12/11 00:10:10;;;;;;;0.52;0.30;;;;;;;8.52;100.00;92135.94;2084884;28;20025;-78
2023/12/11 00:11:12;;;;;;;0.65;0.30;;;;;;;8.60;100.00;92131.13;2087760;28;20108;-79
2023/12/11 00:12:13;;;;;;;0.20;0.20;;;;;;;8.63;100.00;92151.59;2095387;28;20066;-78
2023/12/11 00:13:14;;;;;;;0.20;0.20;;;;;;;8.59;100.00;92149.03;2094510;28;20025;-80
2023/12/11 00:14:15;;;;;;;0.25;0.15;;;;;;;8.50;100.00;92155.00;2097038;28;20074;-79
2023/12/11 00:15:16;;;;;;;0.85;0.28;;;;;;;8.38;100.00;92149.66;2088570;28;20480;-77
2023/12/11 00:16:17;;;;;;;0.22;0.20;;;;;;;8.49;100.00;92152.78;2084330;28;20021;-77
2023/12/11 00:17:18;;;;;;;0.10;0.10;;;;;;;8.59;100.00;92151.69;2092817;28;20028;-76
2023/12/11 00:18:19;;;;;;;0.15;0.15;;;;;;;8.76;100.00;92153.09;2087972;28;20025;-78
2023/12/11 00:19:22;;;;;;;0.75;0.20;;;;;;;8.61;100.00;92161.94;2088531;28;20684;-77
2023/12/11 00:20:23;;;;;;;0.25;0.20;;;;;;;8.52;100.00;92154.59;2086187;28;20068;-79
2023/12/11 00:21:24;;;;;;;0.20;0.20;;;;;;;8.37;100.00;92148.91;2087340;28;20055;-78
2023/12/11 00:22:25;;;;;;;0.30;0.20;;;;;;;8.46;100.00;92162.34;2095749;28;20357;-77
2023/12/11 00:23:26;;;;;;;0.77;0.30;;;;;;;8.49;100.00;92150.84;2083162;28;20032;-79
2023/12/11 00:24:27;;;;;;;0.35;0.20;;;;;;;8.42;100.00;92163.63;2074973;28;20021;-78
2023/12/11 00:25:28;;;;;;;0.52;0.20;;;;;;;8.63;100.00;92147.00;2082138;28;20093;-77
2023/12/11 00:26:29;;;;;;;0.20;0.20;;;;;;;8.72;100.00;92155.09;2093662;28;20016;-80
2023/12/11 00:27:30;;;;;;;0.20;0.20;;;;;;;8.67;100.00;92139.66;2094861;28;20044;-78
2023/12/11 00:28:31;;;;;;;0.10;0.10;;;;;;;8.57;100.00;92138.81;2099388;28;20048;-78
2023/12/11 00:29:32;;;;;;;0.63;0.30;;;;;;;8.43;100.00;92136.59;2087214;28;20552;-78
2023/12/11 00:30:33;;;;;;;0.20;0.20;;;;;;;8.57;100.00;92138.81;2083295;28;20013;-78
2023/12/11 00:31:34;;;;;;;0.52;0.17;;;;;;;8.77;100.00;92149.25;2091300;28;20210;-78
2023/12/11 00:32:35;;;;;;;0.22;0.22;;;;;;;8.77;100.00;92141.25;2093913;28;20028;-79
2023/12/11 00:33:36;;;;;;;0.52;0.20;;;;;;;8.70;100.00;92136.16;2081679;28;20035;-77
2023/12/11 00:34:37;;;;;;;0.52;0.30;;;;;;;8.93;100.00;92143.06;2082470;28;20032;-78
2023/12/11 00:35:38;;;;;;;0.52;0.20;;;;;;;8.85;100.00;92141.03;2085850;28;20951;-77
2023/12/11 00:36:39;;;;;;;0.20;0.20;;;;;;;8.80;100.00;92143.06;2086233;28;20060;-77
2023/12/11 00:37:40;;;;;;;0.20;0.20;;;;;;;8.69;100.00;92141.88;2086992;28;20108;-79
2023/12/11 00:38:41;;;;;;;0.28;0.20;;;;;;;8.78;100.00;92142.75;2088001;28;20503;-78
2023/12/11 00:39:46;;;;;;;0.28;0.20;;;;;;;8.66;100.00;92140.09;2097200;28;20028;-80
2023/12/11 00:40:47;;;;;;;0.22;0.20;;;;;;;8.71;100.00;92145.63;2095365;28;20019;-78
2023/12/11 00:41:48;;;;;;;0.15;0.15;;;;;;;8.93;100.00;92150.31;2089373;28;20428;-77
2023/12/11 00:42:49;;;;;;;0.20;0.20;;;;;;;8.80;100.00;92155.66;2077858;28;20123;-78
2023/12/11 00:43:50;;;;;;;0.10;0.10;;;;;;;8.81;100.00;92154.47;2076823;28;20029;-78
2023/12/11 00:44:51;;;;;;;0.17;0.17;;;;;;;8.87;100.00;92144.78;2080079;28;20762;-76
2023/12/11 00:45:52;;;;;;;0.50;0.30;;;;;;;9.13;100.00;92153.50;2088524;28;20024;-77
2023/12/11 00:46:53;;;;;;;0.10;0.10;;;;;;;9.07;100.00;92139.19;2096003;28;20048;-77
2023/12/11 00:47:54;;;;;;;0.57;0.20;;;;;;;8.90;100.00;92151.91;2088273;28;20078;-77
2023/12/11 00:48:55;;;;;;;1.73;0.20;;;;;;;8.76;100.00;92147.75;2087833;28;20096;-76
2023/12/11 00:49:56;;;;;;;0.20;0.20;;;;;;;8.84;100.00;92150.94;2091283;28;20023;-78
2023/12/11 00:50:57;;;;;;;0.10;0.10;;;;;;;8.74;100.00;92163.44;2086904;28;20080;-76
2023/12/11 00:51:58;;;;;;;0.10;0.10;;;;;;;8.54;100.00;92155.66;2088582;28;20021;-79
2023/12/11 00:52:59;;;;;;;0.10;0.10;;;;;;;8.78;100.00;92160.63;2094323;28;20058;-80
2023/12/11 00:53:59;;;;;;;0.68;0.10;;;;;;;8.99;100.00;92159.25;2093524;28;20020;-79
2023/12/11 00:55:00;;;;;;;0.10;0.10;;;;;;;9.18;100.00;92160.94;2085777;28;20064;-79
2023/12/11 00:56:01;;;;;;;0.15;0.15;;;;;;;9.17;100.00;92154.09;2079471;28;20028;-76
2023/12/11 00:57:03;;;;;;;0.73;0.20;;;;;;;9.30;100.00;92162.06;2086758;28;20021;-78
2023/12/11 00:58:04;;;;;;;0.38;0.20;;;;;;;9.03;100.00;92151.88;2074378;28;20018;-77
2023/12/11 00:59:04;;;;;;;0.10;0.10;;;;;;;9.00;100.00;92163.41;2077769;28;20029;-78
2023/12/11 01:00:06;;;;;;;0.22;0.20;;;;;;;8.77;100.00;92159.16;2074510;28;20036;-77
2023/12/11 01:01:07;;;;;;;0.10;0.10;;;;;;;8.68;100.00;92165.13;2069201;28;20754;-79
2023/12/11 01:02:08;;;;;;;0.10;0.10;;;;;;;8.91;100.00;92165.97;2085304;28;20040;-78
2023/12/11 01:03:09;;;;;;;0.40;0.40;;;;;;;8.90;100.00;92161.81;2085720;28;20024;-78
2023/12/11 01:04:12;;;;;;;0.10;0.10;;;;;;;8.76;100.00;92160.34;2086278;28;20044;-77
2023/12/11 01:05:13;;;;;;;0.32;0.20;;;;;;;8.62;100.00;92160.78;2080206;28;20092;-80
2023/12/11 01:06:14;;;;;;;0.10;0.10;;;;;;;8.81;100.00;92157.13;2086771;28;20018;-78
2023/12/11 01:07:15;;;;;;;0.20;0.20;;;;;;;8.90;100.00;92154.56;2094891;28;20450;-77
2023/12/11 01:08:16;;;;;;;0.10;0.10;;;;;;;8.76;100.00;92155.75;2099972;28;20032;-78
2023/12/11 01:09:17;;;;;;;0.20;0.10;;;;;;;8.79;100.00;92148.84;2093592;28;20028;-76
2023/12/11 01:10:18;;;;;;;0.10;0.10;;;;;;;8.85;100.00;92151.69;2091176;28;20028;-78
2023/12/11 01:11:19;;;;;;;0.45;0.10;;;;;;;8.86;100.00;92164.59;2095477;28;20429;-77
2023/12/11 01:12:20;;;;;;;0.10;0.10;;;;;;;9.04;100.00;92156.03;2077867;28;20103;-81
2023/12/11 01:13:21;;;;;;;0.10;0.10;;;;;;;9.06;100.00;92162.44;2077277;28;20465;-76
2023/12/11 01:14:22;;;;;;;0.30;0.15;;;;;;;8.84;100.00;92164.28;2094672;28;20028;-77
2023/12/11 01:15:23;;;;;;;0.13;0.10;;;;;;;8.88;100.00;92162.25;2096142;28;20112;-77
2023/12/11 01:16:24;;;;;;;0.10;0.10;;;;;;;8.66;100.00;92164.81;2096865;28;20020;-78
2023/12/11 01:17:25;;;;;;;1.67;0.20;;;;;;;8.60;100.00;92171.84;2084582;28;20018;-78
2023/12/11 01:18:26;;;;;;;0.25;0.10;;;;;;;8.80;100.00;92176.97;2079936;28;20036;-77
2023/12/11 01:19:27;;;;;;;0.38;0.20;;;;;;;8.53;100.00;92172.06;2085215;28;20040;-78
2023/12/11 01:20:28;;;;;;;0.20;0.20;;;;;;;8.63;100.00;92170.25;2086751;28;20090;-77
2023/12/11 01:21:29;;;;;;;0.10;0.10;;;;;;;8.62;100.00;92168.75;2086794;28;20048;-79
2023/12/11 01:22:30;;;;;;;0.22;0.20;;;;;;;8.62;100.00;92171.44;2095851;28;20427;-78
2023/12/11 01:23:31;;;;;;;0.35;0.20;;;;;;;8.56;100.00;92169.28;2088642;28;20032;-78
2023/12/11 01:24:32;;;;;;;0.22;0.10;;;;;;;8.64;100.00;92153.81;2085434;28;20063;-76
2023/12/11 01:25:33;;;;;;;0.10;0.10;;;;;;;8.55;100.00;92172.38;2095433;28;20487;-77
2023/12/11 01:26:33;;;;;;;0.32;0.10;;;;;;;8.48;100.00;92181.31;2091267;28;20508;-78
2023/12/11 01:27:34;;;;;;;0.10;0.10;;;;;;;8.65;100.00;92176.66;2082689;28;20013;-76
2023/12/11 01:28:35;;;;;;;0.10;0.10;;;;;;;8.46;100.00;92186.31;2088733;28;20112;-78
2023/12/11 01:29:36;;;;;;;0.10;0.10;;;;;;;8.52;100.00;92181.22;2095850;28;20020;-77
2023/12/11 01:30:37;;;;;;;0.10;0.10;;;;;;;8.56;100.00;92192.53;2088789;28;20108;-78
2023/12/11 01:31:38;;;;;;;0.60;0.10;;;;;;;8.69;100.00;92192.50;2084027;28;20163;-78
2023/12/11 01:32:39;;;;;;;0.10;0.10;;;;;;;8.76;100.00;92189.66;2092222;28;20106;-77
2023/12/11 01:33:40;;;;;;;0.17;0.15;;;;;;;8.66;100.00;92183.47;2088652;28;20058;-78
2023/12/11 01:34:41;;;;;;;0.20;0.10;;;;;;;8.58;100.00;92187.50;2083401;28;20022;-77
2023/12/11 01:35:43;;;;;;;0.10;0.10;;;;;;;8.50;100.00;92186.22;2085926;28;20025;-77
2023/12/11 01:36:43;;;;;;;0.88;0.20;;;;;;;8.62;100.00;92190.06;2086442;28;20025;-77
2023/12/11 01:37:44;;;;;;;0.10;0.10;;;;;;;8.53;100.00;92185.38;2084507;28;20029;-76
2023/12/11 01:38:50;;;;;;;0.10;0.10;;;;;;;8.75;100.00;92198.81;2088618;28;20091;-79
2023/12/11 01:39:50;;;;;;;0.10;0.10;;;;;;;8.85;100.00;92195.06;2086661;28;20021;-78
2023/12/11 01:40:51;;;;;;;0.25;0.10;;;;;;;8.96;100.00;92208.84;2086279;28;20463;-81
2023/12/11 01:41:52;;;;;;;0.20;0.20;;;;;;;8.71;100.00;92198.91;2095225;28;20841;-78
2023/12/11 01:42:53;;;;;;;0.10;0.10;;;;;;;8.78;100.00;92203.28;2099537;28;20032;-79
2023/12/11 01:43:56;;;;;;;0.30;0.13;;;;;;;8.86;100.00;92201.88;2095225;28;20020;-77
2023/12/11 01:44:56;;;;;;;0.10;0.10;;;;;;;8.89;100.00;92192.31;2084768;28;20094;-79
2023/12/11 01:46:06;;;;;;;0.10;0.10;;;;;;;8.87;100.00;92189.31;2085110;28;20513;-76
2023/12/11 01:47:07;;;;;;;0.10;0.10;;;;;;;9.15;100.00;92187.69;2094014;28;20112;-79
2023/12/11 01:48:09;;;;;;;0.35;0.35;;;;;;;9.00;100.00;92176.72;2095529;28;20469;-77
2023/12/11 01:49:10;;;;;;;0.10;0.10;;;;;;;8.89;100.00;92197.63;2097297;28;20035;-78
2023/12/11 01:50:11;;;;;;;0.10;0.10;;;;;;;8.90;100.00;92183.88;2088666;28;20524;-80
2023/12/11 01:51:13;;;;;;;0.65;0.13;;;;;;;8.88;100.00;92196.16;2088783;28;20028;-78
2023/12/11 01:52:15;;;;;;;0.10;0.10;;;;;;;8.86;100.00;92187.81;2086455;28;20465;-79
2023/12/11 01:53:16;;;;;;;0.15;0.15;;;;;;;8.91;100.00;92177.41;2087365;28;20028;-77
2023/12/11 01:54:19;;;;;;;0.10;0.10;;;;;;;8.85;100.00;92178.34;2089612;28;20024;-77
2023/12/11 01:55:20;;;;;;;0.10;0.10;;;;;;;8.75;100.00;92191.56;2076941;28;20047;-81
2023/12/11 01:56:21;;;;;;;0.15;0.15;;;;;;;8.77;100.00;92183.88;2084777;28;20025;-77
2023/12/11 01:57:22;;;;;;;1.02;0.20;;;;;;;9.04;100.00;92174.69;2081426;28;20029;-78
2023/12/11 01:58:24;;;;;;;0.10;0.10;;;;;;;9.01;100.00;92189.63;2092650;28;20410;-76
2023/12/11 01:59:26;;;;;;;0.65;0.10;;;;;;;9.00;100.00;92180.16;2096209;28;20378;-76
2023/12/11 02:00:27;;;;;;;0.10;0.10;;;;;;;8.86;100.00;92183.25;2094653;28;20036;-77
2023/12/11 02:01:29;;;;;;;0.20;0.20;;;;;;;9.03;100.00;92194.53;2099385;28;20042;-78
2023/12/11 02:02:31;;;;;;;0.20;0.20;;;;;;;9.16;100.00;92186.53;2099443;28;20024;-76
2023/12/11 02:03:32;;;;;;;0.10;0.10;;;;;;;9.10;100.00;92193.59;2095411;28;20020;-76
2023/12/11 02:04:33;;;;;;;0.25;0.20;;;;;;;9.05;100.00;92179.63;2090492;28;20496;-75
2023/12/11 02:05:34;;;;;;;0.10;0.10;;;;;;;8.99;100.00;92183.97;2089787;28;20170;-77
2023/12/11 02:06:35;;;;;;;0.52;0.20;;;;;;;8.89;100.00;92190.38;2089098;28;20493;-77
2023/12/11 02:07:38;;;;;;;0.47;0.20;;;;;;;8.74;100.00;92189.34;2088031;28;20126;-76
2023/12/11 02:08:39;;;;;;;1.75;0.20;;;;;;;8.76;100.00;92187.72;2080327;28;20064;-79
2023/12/11 02:09:40;;;;;;;0.32;0.10;;;;;;;8.69;100.00;92179.97;2088375;28;20039;-78
2023/12/11 02:10:41;;;;;;;0.17;0.17;;;;;;;8.75;100.00;92185.50;2097315;28;20033;-76
2023/12/11 02:11:43;;;;;;;0.13;0.13;;;;;;;8.74;100.00;92197.31;2090251;28;20112;-78
2023/12/11 02:12:44;;;;;;;0.85;0.10;;;;;;;8.83;100.00;92182.19;2085815;28;20100;-79
2023/12/11 02:13:44;;;;;;;0.10;0.10;;;;;;;8.63;100.00;92180.91;2090840;28;20020;-79
2023/12/11 02:14:45;;;;;;;0.40;0.20;;;;;;;8.65;100.00;92178.53;2085508;28;20109;-76
2023/12/11 02:15:46;;;;;;;0.20;0.20;;;;;;;8.54;100.00;92184.94;2098313;28;20047;-78
2023/12/11 02:16:47;;;;;;;0.10;0.10;;;;;;;8.49;100.00;92185.47;2085304;28;20028;-78
2023/12/11 02:17:48;;;;;;;1.45;0.20;;;;;;;8.49;100.00;92182.06;2082236;28;20112;-78
2023/12/11 02:18:49;;;;;;;0.10;0.10;;;;;;;8.62;100.00;92174.84;2076310;28;20802;-76
2023/12/11 02:19:51;;;;;;;0.13;0.13;;;;;;;8.53;100.00;92172.81;2076883;28;20044;-76
2023/12/11 02:20:52;;;;;;;0.82;0.15;;;;;;;8.64;100.00;92177.06;2097936;28;20144;-79
2023/12/11 02:21:54;;;;;;;0.20;0.20;;;;;;;8.61;100.00;92177.94;2098536;28;20767;-79
2023/12/11 02:24:58;;;;;;;;;;;;;;;7.80;100.00;92180.50;2134123;27;20168;-76
2023/12/11 02:26:09;;;;;;;0.10;0.10;;;;;;;8.03;100.00;92176.84;2127336;27;20023;-79
2023/12/11 02:27:10;;;;;;;0.63;0.20;;;;;;;8.20;100.00;92179.44;2129418;27;20502;-79
2023/12/11 02:28:11;;;;;;;0.15;0.15;;;;;;;8.25;100.00;92171.69;2129990;27;20057;-79
2023/12/11 02:29:12;;;;;;;0.32;0.20;;;;;;;8.62;100.00;92176.75;2129415;27;20486;-78
2023/12/11 02:30:13;;;;;;;0.10;0.10;;;;;;;8.55;100.00;92180.34;2129362;27;20007;-77
2023/12/11 02:31:14;;;;;;;1.65;0.17;;;;;;;8.35;100.00;92171.81;2120868;27;20058;-77
2023/12/11 02:32:16;;;;;;;0.65;0.20;;;;;;;8.23;100.00;92179.34;2120927;27;20028;-77
2023/12/11 02:33:17;;;;;;;0.47;0.10;;;;;;;8.21;100.00;92183.56;2120980;27;20419;-78
2023/12/11 02:34:18;;;;;;;0.10;0.10;;;;;;;8.35;100.00;92177.88;2129287;27;20023;-76
2023/12/11 02:35:19;;;;;;;0.10;0.10;;;;;;;8.31;100.00;92180.63;2129155;27;20046;-77
2023/12/11 02:36:20;;;;;;;0.40;0.38;;;;;;;8.47;100.00;92189.72;2118301;27;20027;-78
2023/12/11 02:37:21;;;;;;;0.10;0.10;;;;;;;8.48;100.00;92184.00;2129163;27;20139;-81
2023/12/11 02:38:22;;;;;;;0.45;0.10;;;;;;;8.47;100.00;92179.84;2129106;27;20496;-76
2023/12/11 02:39:23;;;;;;;0.43;0.20;;;;;;;8.40;100.00;92188.03;2128941;27;20030;-77
2023/12/11 02:40:26;;;;;;;0.10;0.10;;;;;;;8.39;100.00;92191.13;2129093;27;20033;-78
2023/12/11 02:41:27;;;;;;;0.17;0.17;;;;;;;8.45;100.00;92179.50;2129867;27;20030;-79
2023/12/11 02:42:28;;;;;;;0.20;0.20;;;;;;;8.52;100.00;92191.88;2129561;27;20476;-79
2023/12/11 02:43:29;;;;;;;1.00;0.20;;;;;;;8.52;100.00;92189.97;2127090;27;20586;-76
2023/12/11 02:44:30;;;;;;;0.63;0.28;;;;;;;8.52;100.00;92189.97;2119934;27;20805;-78
2023/12/11 02:45:31;;;;;;;0.10;0.10;;;;;;;8.69;100.00;92189.84;2124346;27;20133;-78
2023/12/11 02:46:32;;;;;;;0.10;0.10;;;;;;;8.91;100.00;92187.28;2120108;27;20477;-77
2023/12/11 02:47:33;;;;;;;1.17;0.30;;;;;;;8.69;100.00;92185.28;2118361;27;20020;-77
2023/12/11 02:48:34;;;;;;;0.17;0.17;;;;;;;8.73;100.00;92185.91;2127035;27;20406;-79
2023/12/11 02:49:35;;;;;;;0.10;0.10;;;;;;;8.63;100.00;92181.66;2129240;27;20050;-77
2023/12/11 02:50:36;;;;;;;0.15;0.15;;;;;;;8.59;100.00;92194.31;2127260;27;20018;-77
2023/12/11 02:51:37;;;;;;;0.38;0.25;;;;;;;8.62;100.00;92193.47;2120309;28;20076;-77
2023/12/11 02:52:38;;;;;;;0.40;0.20;;;;;;;8.64;100.00;92188.47;2118279;28;20027;-79
2023/12/11 02:53:39;;;;;;;0.55;0.20;;;;;;;8.47;100.00;92185.16;2128261;27;20115;-80
2023/12/11 02:54:40;;;;;;;0.40;0.20;;;;;;;8.33;100.00;92180.94;2129799;27;20019;-80
2023/12/11 02:55:41;;;;;;;0.10;0.10;;;;;;;8.23;100.00;92167.94;2129552;27;20050;-78
2023/12/11 02:56:42;;;;;;;0.77;0.20;;;;;;;8.37;100.00;92170.22;2127594;27;20019;-77
2023/12/11 02:57:43;;;;;;;0.75;0.30;;;;;;;8.54;100.00;92174.28;2120698;27;20419;-78
2023/12/11 02:58:44;;;;;;;0.32;0.17;;;;;;;8.43;100.00;92176.53;2129117;27;20034;-78
2023/12/11 02:59:45;;;;;;;0.10;0.10;;;;;;;8.22;100.00;92172.53;2129955;27;20027;-79
2023/12/11 03:00:59;;;;;;;0.22;0.20;;;;;;;8.37;100.00;92175.53;2127988;27;20481;-77
2023/12/11 03:02:00;;;;;;;0.98;0.25;;;;;;;8.41;100.00;92156.81;2128400;27;20027;-78
2023/12/11 03:03:01;;;;;;;0.20;0.20;;;;;;;8.39;100.00;92173.22;2129075;27;20023;-77
2023/12/11 03:04:03;;;;;;;0.85;0.28;;;;;;;8.33;100.00;92172.22;2128324;27;20029;-76
2023/12/11 03:05:04;;;;;;;0.43;0.28;;;;;;;8.36;100.00;92162.63;2120905;27;20392;-78
2023/12/11 03:06:06;;;;;;;0.32;0.20;;;;;;;8.52;100.00;92166.00;2118406;27;20031;-78
2023/12/11 03:07:06;;;;;;;0.20;0.20;;;;;;;8.29;100.00;92168.91;2129060;27;20145;-82
2023/12/11 03:08:08;;;;;;;0.30;0.30;;;;;;;8.10;100.00;92167.16;2127729;27;20422;-80
2023/12/11 03:09:09;;;;;;;0.98;0.20;;;;;;;8.08;100.00;92170.25;2120255;28;20905;-78
2023/12/11 03:10:10;;;;;;;0.10;0.10;;;;;;;7.99;100.00;92173.53;2111210;28;20070;-77
2023/12/11 03:11:11;;;;;;;0.15;0.10;;;;;;;7.93;100.00;92174.47;2112158;28;20126;-79
2023/12/11 03:12:12;;;;;;;0.10;0.10;;;;;;;8.19;100.00;92181.34;2112288;27;20020;-78
2023/12/11 03:13:13;;;;;;;0.20;0.20;;;;;;;8.03;100.00;92182.19;2125876;27;20030;-77
2023/12/11 03:14:14;;;;;;;0.63;0.25;;;;;;;8.07;100.00;92180.13;2127168;27;20053;-77
2023/12/11 03:15:15;;;;;;;0.15;0.15;;;;;;;8.01;100.00;92181.84;2125316;27;20105;-78
2023/12/11 03:16:16;;;;;;;0.20;0.20;;;;;;;8.01;100.00;92192.47;2126188;27;20015;-76
2023/12/11 03:17:17;;;;;;;0.93;0.20;;;;;;;7.92;100.00;92192.34;2111980;28;20024;-78
2023/12/11 03:18:18;;;;;;;0.15;0.15;;;;;;;7.76;100.00;92192.38;2111570;28;20110;-79
2023/12/11 03:19:18;;;;;;;0.10;0.10;;;;;;;7.73;100.00;92196.66;2121073;27;20133;-77
2023/12/11 03:20:20;;;;;;;1.20;0.20;;;;;;;7.62;100.00;92185.53;2120894;27;20015;-77
2023/12/11 03:21:21;;;;;;;0.98;0.20;;;;;;;7.55;100.00;92185.69;2107860;28;20089;-78
2023/12/11 03:22:24;;;;;;;0.10;0.10;;;;;;;7.56;100.00;92198.59;2108678;28;20029;-76
2023/12/11 03:23:25;;;;;;;1.00;0.17;;;;;;;7.47;100.00;92195.78;2119999;28;20043;-79
2023/12/11 03:24:26;;;;;;;0.30;0.20;;;;;;;7.57;100.00;92189.44;2119989;28;20443;-79
2023/12/11 03:25:27;;;;;;;0.88;0.25;;;;;;;7.57;100.00;92181.47;2117147;28;20122;-77
2023/12/11 03:26:28;;;;;;;0.50;0.20;;;;;;;7.64;100.00;92182.44;2120057;28;20015;-78
2023/12/11 03:27:33;;;;;;;0.20;0.20;;;;;;;7.66;100.00;92182.78;2120936;28;20126;-78
2023/12/11 03:28:34;;;;;;;0.57;0.20;;;;;;;7.69;100.00;92181.94;2120956;28;20027;-77
2023/12/11 03:29:35;;;;;;;1.13;0.20;;;;;;;7.85;100.00;92173.91;2111777;28;20030;-78
2023/12/11 03:30:36;;;;;;;0.20;0.20;;;;;;;7.74;100.00;92179.53;2111651;28;20023;-77
2023/12/11 03:31:37;;;;;;;0.20;0.20;;;;;;;7.74;100.00;92178.78;2126665;27;20027;-78
2023/12/11 03:32:38;;;;;;;0.20;0.20;;;;;;;7.79;100.00;92178.25;2128850;27;20050;-77
2023/12/11 03:33:39;;;;;;;0.20;0.20;;;;;;;7.71;100.00;92174.28;2111935;28;20019;-78
2023/12/11 03:34:40;;;;;;;0.80;0.20;;;;;;;7.61;100.00;92170.75;2102781;28;20021;-78
2023/12/11 03:35:41;;;;;;;0.20;0.20;;;;;;;7.52;100.00;92166.03;2108275;28;20058;-78
2023/12/11 03:36:42;;;;;;;0.20;0.20;;;;;;;7.50;100.00;92160.38;2114448;28;20489;-79
2023/12/11 03:37:43;;;;;;;0.10;0.10;;;;;;;7.66;100.00;92158.84;2114374;28;20031;-77
2023/12/11 03:38:44;;;;;;;0.20;0.20;;;;;;;7.97;100.00;92167.88;2107633;28;20042;-78
2023/12/11 03:39:45;;;;;;;0.20;0.20;;;;;;;7.87;100.00;92160.94;2097440;28;20020;-78
2023/12/11 03:40:46;;;;;;;0.40;0.20;;;;;;;7.75;100.00;92153.66;2105905;28;20070;-77
2023/12/11 03:41:48;;;;;;;1.05;0.22;;;;;;;7.68;100.00;92154.63;2115190;28;20020;-77
2023/12/11 03:42:49;;;;;;;0.10;0.10;;;;;;;7.61;100.00;92160.09;2115222;28;20019;-77
2023/12/11 03:43:50;;;;;;;0.95;0.40;;;;;;;7.53;100.00;92159.53;2113180;28;20028;-78
2023/12/11 03:44:51;;;;;;;1.38;0.25;;;;;;;7.54;100.00;92152.31;2111685;28;20068;-79
2023/12/11 03:45:55;;;;;;;0.10;0.10;;;;;;;7.66;100.00;92153.53;2112259;28;20085;-78
2023/12/11 03:46:57;;;;;;;0.95;0.20;;;;;;;7.74;100.00;92141.53;2120703;27;20522;-78
2023/12/11 03:47:58;;;;;;;0.20;0.17;;;;;;;7.67;100.00;92142.47;2114397;28;20068;-79
2023/12/11 03:48:59;;;;;;;0.20;0.20;;;;;;;7.54;100.00;92131.78;2105883;28;20116;-76
2023/12/11 03:50:00;;;;;;;0.15;0.15;;;;;;;7.47;100.00;92131.22;2113730;28;20023;-77
2023/12/11 03:51:01;;;;;;;0.45;0.20;;;;;;;7.42;100.00;92134.38;2115136;28;20027;-79
2023/12/11 03:52:03;;;;;;;0.68;0.20;;;;;;;7.38;100.00;92142.47;2105834;28;20024;-80
2023/12/11 03:53:04;;;;;;;0.10;0.10;;;;;;;7.52;100.00;92136.78;2105937;28;20086;-79
2023/12/11 03:54:05;;;;;;;0.20;0.20;;;;;;;7.63;100.00;92141.81;2105988;28;20169;-78
2023/12/11 03:55:06;;;;;;;0.47;0.20;;;;;;;7.75;100.00;92141.09;2105782;28;20030;-78
2023/12/11 03:56:07;;;;;;;1.10;0.25;;;;;;;7.69;100.00;92145.47;2114342;28;20089;-78
2023/12/11 03:57:09;;;;;;;1.17;0.30;;;;;;;7.60;100.00;92149.91;2108124;28;20055;-77
2023/12/11 03:58:09;;;;;;;1.35;0.20;;;;;;;7.55;100.00;92149.25;2114421;28;20015;-78
2023/12/11 03:59:13;;;;;;;0.17;0.10;;;;;;;7.60;100.00;92147.25;2114634;28;20023;-78
2023/12/11 04:00:14;;;;;;;0.50;0.22;;;;;;;7.74;100.00;92146.84;2114446;28;20371;-78
2023/12/11 04:01:24;;;;;;;0.93;0.20;;;;;;;7.66;100.00;92150.88;2105629;28;20787;-78
2023/12/11 04:02:25;;;;;;;0.40;0.20;;;;;;;7.62;100.00;92153.63;2115779;27;20023;-78
2023/12/11 04:03:26;;;;;;;1.45;0.20;;;;;;;7.48;100.00;92156.66;2114548;28;20043;-77
2023/12/11 04:04:28;;;;;;;0.20;0.20;;;;;;;7.66;100.00;92164.91;2114258;28;20043;-78
2023/12/11 04:05:29;;;;;;;0.82;0.30;;;;;;;7.53;100.00;92167.50;2114244;28;20069;-79
2023/12/11 04:06:30;;;;;;;0.20;0.20;;;;;;;7.89;100.00;92166.56;2113995;28;20612;-78
2023/12/11 04:07:31;;;;;;;0.68;0.30;;;;;;;7.66;100.00;92158.84;2114588;28;20085;-77
2023/12/11 04:08:32;;;;;;;0.63;0.20;;;;;;;7.57;100.00;92162.09;2114638;28;20088;-76
2023/12/11 04:09:33;;;;;;;0.90;0.20;;;;;;;7.61;100.00;92154.78;2114894;28;20095;-78
2023/12/11 04:10:34;;;;;;;0.20;0.20;;;;;;;7.70;100.00;92157.59;2114931;28;20492;-79
2023/12/11 04:11:35;;;;;;;0.55;0.35;;;;;;;7.64;100.00;92158.50;2115065;28;20027;-76
2023/12/11 04:12:41;;;;;;;0.17;0.17;;;;;;;7.58;100.00;92168.91;2112594;28;20026;-81
2023/12/11 04:13:43;;;;;;;0.32;0.15;;;;;;;7.46;100.00;92166.94;2097755;28;20028;-77
2023/12/11 04:14:43;;;;;;;0.30;0.20;;;;;;;7.56;100.00;92163.28;2102124;28;20008;-79
2023/12/11 04:15:44;;;;;;;1.08;0.30;;;;;;;7.46;100.00;92159.75;2113894;28;20023;-78
2023/12/11 04:16:46;;;;;;;0.50;0.22;;;;;;;7.38;100.00;92163.00;2112322;28;20499;-78
2023/12/11 04:17:47;;;;;;;0.15;0.15;;;;;;;7.50;100.00;92149.72;2114282;28;20024;-79
2023/12/11 04:18:48;;;;;;;0.20;0.20;;;;;;;7.49;100.00;92160.78;2114733;28;20396;-79
2023/12/11 04:19:49;;;;;;;0.20;0.20;;;;;;;7.55;100.00;92159.09;2113983;28;20804;-81
2023/12/11 04:20:50;;;;;;;0.52;0.32;;;;;;;7.49;100.00;92145.59;2113869;28;20645;-78
2023/12/11 04:21:52;;;;;;;0.22;0.20;;;;;;;7.40;100.00;92150.75;2114274;28;20031;-78
2023/12/11 04:22:53;;;;;;;0.95;0.68;;;;;;;7.46;100.00;92154.41;2111885;28;20037;-76
2023/12/11 04:23:55;;;;;;;0.32;0.20;;;;;;;7.57;100.00;92154.88;2113885;28;20357;-79
2023/12/11 04:24:56;;;;;;;0.55;0.20;;;;;;;7.56;100.00;92157.97;2114116;28;20023;-79
2023/12/11 04:25:59;;;;;;;0.98;0.22;;;;;;;7.54;100.00;92157.63;2114315;28;20109;-79
2023/12/11 04:27:00;;;;;;;1.15;0.30;;;;;;;7.42;100.00;92163.63;2114231;28;20531;-78
2023/12/11 04:28:01;;;;;;;0.20;0.20;;;;;;;7.53;100.00;92150.81;2114048;28;20035;-77
2023/12/11 04:29:02;;;;;;;0.20;0.20;;;;;;;7.49;100.00;92161.53;2114275;28;20648;-76
2023/12/11 04:30:04;;;;;;;0.25;0.20;;;;;;;7.62;100.00;92166.91;2114798;28;20064;-77
2023/12/11 04:31:05;;;;;;;0.20;0.20;;;;;;;7.58;100.00;92166.25;2114461;28;20104;-78
2023/12/11 04:32:06;;;;;;;0.55;0.20;;;;;;;7.83;100.00;92165.63;2112044;28;20110;-77
2023/12/11 04:33:07;;;;;;;0.20;0.20;;;;;;;7.65;100.00;92165.34;2113983;28;20438;-77
2023/12/11 04:34:08;;;;;;;0.20;0.20;;;;;;;7.78;100.00;92172.19;2113924;28;20023;-80
2023/12/11 04:35:09;;;;;;;1.30;0.28;;;;;;;7.75;100.00;92162.38;2103632;28;20434;-79
2023/12/11 04:36:10;;;;;;;0.20;0.20;;;;;;;7.71;100.00;92158.31;2111105;28;20028;-79
2023/12/11 04:37:11;;;;;;;1.17;0.20;;;;;;;7.87;100.00;92150.31;2113262;28;20077;-78
2023/12/11 04:38:12;;;;;;;1.00;0.20;;;;;;;7.84;100.00;92145.81;2114361;28;20027;-78
2023/12/11 04:39:13;;;;;;;0.35;0.20;;;;;;;7.63;100.00;92146.38;2113919;28;20042;-76
2023/12/11 04:40:14;;;;;;;0.30;0.30;;;;;;;7.74;100.00;92139.63;2105900;28;20023;-78
2023/12/11 04:41:15;;;;;;;1.08;0.30;;;;;;;7.65;100.00;92139.50;2113435;28;20020;-81
2023/12/11 04:42:16;;;;;;;0.28;0.20;;;;;;;7.44;100.00;92150.69;2115006;28;20927;-79
2023/12/11 04:43:17;;;;;;;0.63;0.20;;;;;;;7.32;100.00;92133.50;2114151;28;20051;-78
2023/12/11 04:44:18;;;;;;;0.40;0.25;;;;;;;7.39;100.00;92132.59;2104799;28;20452;-78
2023/12/11 04:45:19;;;;;;;0.80;0.30;;;;;;;7.32;100.00;92134.25;2113682;28;20033;-81
2023/12/11 04:46:20;;;;;;;0.43;0.22;;;;;;;7.40;100.00;92126.84;2114098;28;20016;-77
2023/12/11 04:47:20;;;;;;;0.32;0.20;;;;;;;7.45;100.00;92136.97;2114072;27;20111;-77
2023/12/11 04:48:21;;;;;;;0.20;0.20;;;;;;;7.33;100.00;92132.31;2113874;28;20019;-79
2023/12/11 04:49:22;;;;;;;0.93;0.40;;;;;;;7.35;100.00;92139.91;2114572;28;20023;-79
2023/12/11 04:50:23;;;;;;;0.30;0.30;;;;;;;7.29;100.00;92131.69;2113746;28;20047;-79
2023/12/11 04:51:24;;;;;;;0.40;0.20;;;;;;;7.24;100.00;92124.97;2113624;28;20030;-78